sensor_id;sensor_type;location;lat;lon;timestamp;temperature;humidity
1594;DHT22;790;47.000;16.084;2022-11-15T00:00:00;9.80;99.90
1594;DHT22;790;47.000;16.084;2022-11-15T00:02:27;9.80;99.90
1594;DHT22;790;47.000;16.084;2022-11-15T00:04:54;9.90;99.90
1594;DHT22;790;47.000;16.084;2022-11-15T00:07:22;9.80;99.90
1594;DHT22;790;47.000;16.084;2022-11-15T00:09:49;9.80;99.90
1594;DHT22;790;47.000;16.084;2022-11-15T00:12:16;9.80;99.90
1594;DHT22;790;47.000;16.084;2022-11-15T00:14:44;9.80;99.90
1594;DHT22;790;47.000;16.084;2022-11-15T00:17:12;9.80;99.90
1594;DHT22;790;47.000;16.084;2022-11-15T00:19:39;9.80;99.90
1594;DHT22;790;47.000;16.084;2022-11-15T00:22:06;9.70;99.90
1594;DHT22;790;47.000;16.084;2022-11-15T00:24:34;9.70;99.90
1594;DHT22;790;47.000;16.084;2022-11-15T00:27:01;9.60;99.90
1594;DHT22;790;47.000;16.084;2022-11-15T00:29:28;9.60;99.90
1594;DHT22;790;47.000;16.084;2022-11-15T00:31:55;9.50;99.90
1594;DHT22;790;47.000;16.084;2022-11-15T00:34:23;9.50;99.90
1594;DHT22;790;47.000;16.084;2022-11-15T00:36:50;9.50;99.90
1594;DHT22;790;47.000;16.084;2022-11-15T00:39:17;9.50;99.90
1594;DHT22;790;47.000;16.084;2022-11-15T00:41:46;9.50;99.90
1594;DHT22;790;47.000;16.084;2022-11-15T00:44:13;9.50;99.90
1594;DHT22;790;47.000;16.084;2022-11-15T00:46:40;9.50;99.90
1594;DHT22;790;47.000;16.084;2022-11-15T00:49:07;9.50;99.90
1594;DHT22;790;47.000;16.084;2022-11-15T00:51:35;9.50;99.90
1594;DHT22;790;47.000;16.084;2022-11-15T00:54:02;9.40;99.90
1594;DHT22;790;47.000;16.084;2022-11-15T00:56:29;9.40;99.90
1594;DHT22;790;47.000;16.084;2022-11-15T00:58:58;9.30;99.90
1594;DHT22;790;47.000;16.084;2022-11-15T01:01:25;9.20;99.90
1594;DHT22;790;47.000;16.084;2022-11-15T01:03:52;9.10;99.90
1594;DHT22;790;47.000;16.084;2022-11-15T01:06:19;9.10;99.90
1594;DHT22;790;47.000;16.084;2022-11-15T01:08:46;9.00;99.90
1594;DHT22;790;47.000;16.084;2022-11-15T01:11:13;9.00;99.90
1594;DHT22;790;47.000;16.084;2022-11-15T01:13:40;9.00;99.90
1594;DHT22;790;47.000;16.084;2022-11-15T01:16:12;9.00;99.90
1594;DHT22;790;47.000;16.084;2022-11-15T01:18:39;9.10;99.90
1594;DHT22;790;47.000;16.084;2022-11-15T01:21:08;9.00;99.90
1594;DHT22;790;47.000;16.084;2022-11-15T01:23:35;9.00;99.90
1594;DHT22;790;47.000;16.084;2022-11-15T01:26:04;8.90;99.90
1594;DHT22;790;47.000;16.084;2022-11-15T01:28:32;8.90;99.90
1594;DHT22;790;47.000;16.084;2022-11-15T01:31:01;9.00;99.90
1594;DHT22;790;47.000;16.084;2022-11-15T01:33:30;9.10;99.90
1594;DHT22;790;47.000;16.084;2022-11-15T01:35:57;9.10;99.90
1594;DHT22;790;47.000;16.084;2022-11-15T01:38:24;9.20;99.90
1594;DHT22;790;47.000;16.084;2022-11-15T01:40:51;9.30;99.90
1594;DHT22;790;47.000;16.084;2022-11-15T01:43:23;9.40;99.90
1594;DHT22;790;47.000;16.084;2022-11-15T01:45:53;9.40;99.90
1594;DHT22;790;47.000;16.084;2022-11-15T01:48:22;9.40;99.90
1594;DHT22;790;47.000;16.084;2022-11-15T01:50:54;9.50;99.90
1594;DHT22;790;47.000;16.084;2022-11-15T01:53:23;9.50;99.90
1594;DHT22;790;47.000;16.084;2022-11-15T01:55:51;9.40;99.90
1594;DHT22;790;47.000;16.084;2022-11-15T01:58:19;9.50;99.90
1594;DHT22;790;47.000;16.084;2022-11-15T02:00:46;9.50;99.90
1594;DHT22;790;47.000;16.084;2022-11-15T02:03:15;9.50;99.90
1594;DHT22;790;47.000;16.084;2022-11-15T02:05:43;9.50;99.90
1594;DHT22;790;47.000;16.084;2022-11-15T02:08:12;9.40;99.90
1594;DHT22;790;47.000;16.084;2022-11-15T02:10:45;9.50;99.90
1594;DHT22;790;47.000;16.084;2022-11-15T02:13:13;9.50;99.90
1594;DHT22;790;47.000;16.084;2022-11-15T02:15:47;9.50;99.90
1594;DHT22;790;47.000;16.084;2022-11-15T02:18:24;9.50;99.90
1594;DHT22;790;47.000;16.084;2022-11-15T02:21:01;9.50;99.90
1594;DHT22;790;47.000;16.084;2022-11-15T02:27:11;9.50;99.90
1594;DHT22;790;47.000;16.084;2022-11-15T02:30:00;9.50;99.90
1594;DHT22;790;47.000;16.084;2022-11-15T02:32:35;9.60;99.90
1594;DHT22;790;47.000;16.084;2022-11-15T02:35:15;9.60;99.90
1594;DHT22;790;47.000;16.084;2022-11-15T02:37:47;9.70;99.90
1594;DHT22;790;47.000;16.084;2022-11-15T02:40:23;9.60;99.90
1594;DHT22;790;47.000;16.084;2022-11-15T02:43:04;9.60;99.90
1594;DHT22;790;47.000;16.084;2022-11-15T02:46:09;9.70;99.90
1594;DHT22;790;47.000;16.084;2022-11-15T02:48:41;9.60;99.90
1594;DHT22;790;47.000;16.084;2022-11-15T02:51:10;9.60;99.90
1594;DHT22;790;47.000;16.084;2022-11-15T02:53:38;9.60;99.90
1594;DHT22;790;47.000;16.084;2022-11-15T02:56:08;9.60;99.90
1594;DHT22;790;47.000;16.084;2022-11-15T02:58:52;9.60;99.90
1594;DHT22;790;47.000;16.084;2022-11-15T03:01:34;9.60;99.90
1594;DHT22;790;47.000;16.084;2022-11-15T03:04:19;9.60;99.90
1594;DHT22;790;47.000;16.084;2022-11-15T03:06:55;9.60;99.90
1594;DHT22;790;47.000;16.084;2022-11-15T03:09:30;9.60;99.90
1594;DHT22;790;47.000;16.084;2022-11-15T03:12:04;9.60;99.90
1594;DHT22;790;47.000;16.084;2022-11-15T03:14:36;9.60;99.90
1594;DHT22;790;47.000;16.084;2022-11-15T03:17:09;9.60;99.90
1594;DHT22;790;47.000;16.084;2022-11-15T03:19:44;9.60;99.90
1594;DHT22;790;47.000;16.084;2022-11-15T03:22:14;9.60;99.90
1594;DHT22;790;47.000;16.084;2022-11-15T03:24:44;9.60;99.90
1594;DHT22;790;47.000;16.084;2022-11-15T03:27:13;9.60;99.90
1594;DHT22;790;47.000;16.084;2022-11-15T03:29:45;9.60;99.90
1594;DHT22;790;47.000;16.084;2022-11-15T03:32:16;9.50;99.90
1594;DHT22;790;47.000;16.084;2022-11-15T03:34:50;9.50;99.90
1594;DHT22;790;47.000;16.084;2022-11-15T03:37:22;9.50;99.90
1594;DHT22;790;47.000;16.084;2022-11-15T03:39:51;9.60;99.90
1594;DHT22;790;47.000;16.084;2022-11-15T03:42:22;9.60;99.90
1594;DHT22;790;47.000;16.084;2022-11-15T03:44:56;9.60;99.90
1594;DHT22;790;47.000;16.084;2022-11-15T03:47:30;9.60;99.90
1594;DHT22;790;47.000;16.084;2022-11-15T03:50:04;9.50;99.90
1594;DHT22;790;47.000;16.084;2022-11-15T03:52:34;9.50;99.90
1594;DHT22;790;47.000;16.084;2022-11-15T03:55:03;9.50;99.90
1594;DHT22;790;47.000;16.084;2022-11-15T03:57:31;9.50;99.90
1594;DHT22;790;47.000;16.084;2022-11-15T03:59:58;9.50;99.90
1594;DHT22;790;47.000;16.084;2022-11-15T04:02:25;9.50;99.90
1594;DHT22;790;47.000;16.084;2022-11-15T04:04:52;9.50;99.90
1594;DHT22;790;47.000;16.084;2022-11-15T04:07:21;9.50;99.90
1594;DHT22;790;47.000;16.084;2022-11-15T04:09:48;9.50;99.90
1594;DHT22;790;47.000;16.084;2022-11-15T04:12:31;9.50;99.90
1594;DHT22;790;47.000;16.084;2022-11-15T04:15:00;9.50;99.90
1594;DHT22;790;47.000;16.084;2022-11-15T04:17:38;9.50;99.90
1594;DHT22;790;47.000;16.084;2022-11-15T04:20:09;9.50;99.90
1594;DHT22;790;47.000;16.084;2022-11-15T04:22:56;9.40;99.90
1594;DHT22;790;47.000;16.084;2022-11-15T04:25:42;9.50;99.90
1594;DHT22;790;47.000;16.084;2022-11-15T04:28:10;9.50;99.90
1594;DHT22;790;47.000;16.084;2022-11-15T04:30:37;9.50;99.90
1594;DHT22;790;47.000;16.084;2022-11-15T04:33:04;9.40;99.90
1594;DHT22;790;47.000;16.084;2022-11-15T04:35:32;9.30;99.90
1594;DHT22;790;47.000;16.084;2022-11-15T04:38:01;9.20;99.90
1594;DHT22;790;47.000;16.084;2022-11-15T04:40:29;9.00;99.90
1594;DHT22;790;47.000;16.084;2022-11-15T04:42:56;8.90;99.90
1594;DHT22;790;47.000;16.084;2022-11-15T04:45:23;8.80;99.90
1594;DHT22;790;47.000;16.084;2022-11-15T04:47:50;8.80;99.90
1594;DHT22;790;47.000;16.084;2022-11-15T04:50:17;8.90;99.90
1594;DHT22;790;47.000;16.084;2022-11-15T04:52:51;8.90;99.90
1594;DHT22;790;47.000;16.084;2022-11-15T04:55:24;9.00;99.90
1594;DHT22;790;47.000;16.084;2022-11-15T04:57:57;9.00;99.90
1594;DHT22;790;47.000;16.084;2022-11-15T05:00:26;9.10;99.90
1594;DHT22;790;47.000;16.084;2022-11-15T05:02:54;9.10;99.90
1594;DHT22;790;47.000;16.084;2022-11-15T05:05:38;9.10;99.90
1594;DHT22;790;47.000;16.084;2022-11-15T05:08:05;9.00;99.90
1594;DHT22;790;47.000;16.084;2022-11-15T05:10:34;9.10;99.90
1594;DHT22;790;47.000;16.084;2022-11-15T05:13:01;9.10;99.90
1594;DHT22;790;47.000;16.084;2022-11-15T05:15:28;9.10;99.90
1594;DHT22;790;47.000;16.084;2022-11-15T05:17:57;9.10;99.90
1594;DHT22;790;47.000;16.084;2022-11-15T05:20:25;9.20;99.90
1594;DHT22;790;47.000;16.084;2022-11-15T05:22:53;9.20;99.90
1594;DHT22;790;47.000;16.084;2022-11-15T05:25:20;9.20;99.90
1594;DHT22;790;47.000;16.084;2022-11-15T05:27:48;9.20;99.90
1594;DHT22;790;47.000;16.084;2022-11-15T05:30:16;9.30;99.90
1594;DHT22;790;47.000;16.084;2022-11-15T05:32:44;9.40;99.90
1594;DHT22;790;47.000;16.084;2022-11-15T05:35:13;9.30;99.90
1594;DHT22;790;47.000;16.084;2022-11-15T05:37:42;9.20;99.90
1594;DHT22;790;47.000;16.084;2022-11-15T05:40:09;9.20;99.90
1594;DHT22;790;47.000;16.084;2022-11-15T05:42:36;9.20;99.90
1594;DHT22;790;47.000;16.084;2022-11-15T05:45:08;9.10;99.90
1594;DHT22;790;47.000;16.084;2022-11-15T05:47:37;9.10;99.90
1594;DHT22;790;47.000;16.084;2022-11-15T05:50:05;9.20;99.90
1594;DHT22;790;47.000;16.084;2022-11-15T05:52:35;9.20;99.90
1594;DHT22;790;47.000;16.084;2022-11-15T05:55:05;9.20;99.90
1594;DHT22;790;47.000;16.084;2022-11-15T05:57:33;9.20;99.90
1594;DHT22;790;47.000;16.084;2022-11-15T06:00:01;9.20;99.90
1594;DHT22;790;47.000;16.084;2022-11-15T06:02:30;9.20;99.90
1594;DHT22;790;47.000;16.084;2022-11-15T06:04:57;9.20;99.90
1594;DHT22;790;47.000;16.084;2022-11-15T06:07:24;9.20;99.90
1594;DHT22;790;47.000;16.084;2022-11-15T06:09:52;9.30;99.90
1594;DHT22;790;47.000;16.084;2022-11-15T06:12:19;9.20;99.90
1594;DHT22;790;47.000;16.084;2022-11-15T06:14:46;9.30;99.90
1594;DHT22;790;47.000;16.084;2022-11-15T06:17:13;9.40;99.90
1594;DHT22;790;47.000;16.084;2022-11-15T06:19:42;9.40;99.90
1594;DHT22;790;47.000;16.084;2022-11-15T06:22:09;9.50;99.90
1594;DHT22;790;47.000;16.084;2022-11-15T06:24:36;9.50;99.90
1594;DHT22;790;47.000;16.084;2022-11-15T06:27:03;9.50;99.90
1594;DHT22;790;47.000;16.084;2022-11-15T06:29:30;9.50;99.90
1594;DHT22;790;47.000;16.084;2022-11-15T06:31:57;9.40;99.90
1594;DHT22;790;47.000;16.084;2022-11-15T06:34:24;9.40;99.90
1594;DHT22;790;47.000;16.084;2022-11-15T06:36:52;9.40;99.90
1594;DHT22;790;47.000;16.084;2022-11-15T06:39:19;9.50;99.90
1594;DHT22;790;47.000;16.084;2022-11-15T06:41:46;9.50;99.90
1594;DHT22;790;47.000;16.084;2022-11-15T06:44:13;9.50;99.90
1594;DHT22;790;47.000;16.084;2022-11-15T06:46:40;9.40;99.90
1594;DHT22;790;47.000;16.084;2022-11-15T06:49:08;9.40;99.90
1594;DHT22;790;47.000;16.084;2022-11-15T06:51:35;9.40;99.90
1594;DHT22;790;47.000;16.084;2022-11-15T06:54:04;9.40;99.90
1594;DHT22;790;47.000;16.084;2022-11-15T06:56:31;9.40;99.90
1594;DHT22;790;47.000;16.084;2022-11-15T06:59:00;9.40;99.90
1594;DHT22;790;47.000;16.084;2022-11-15T07:01:27;9.40;99.90
1594;DHT22;790;47.000;16.084;2022-11-15T07:03:54;9.40;99.90
1594;DHT22;790;47.000;16.084;2022-11-15T07:06:21;9.50;99.90
1594;DHT22;790;47.000;16.084;2022-11-15T07:08:49;9.50;99.90
1594;DHT22;790;47.000;16.084;2022-11-15T07:11:17;9.50;99.90
1594;DHT22;790;47.000;16.084;2022-11-15T07:13:45;9.60;99.90
1594;DHT22;790;47.000;16.084;2022-11-15T07:16:13;9.50;99.90
1594;DHT22;790;47.000;16.084;2022-11-15T07:18:40;9.50;99.90
1594;DHT22;790;47.000;16.084;2022-11-15T07:21:09;9.60;99.90
1594;DHT22;790;47.000;16.084;2022-11-15T07:23:37;9.50;99.90
1594;DHT22;790;47.000;16.084;2022-11-15T07:26:08;9.50;99.90
1594;DHT22;790;47.000;16.084;2022-11-15T07:28:37;9.40;99.90
1594;DHT22;790;47.000;16.084;2022-11-15T07:31:05;9.30;99.90
1594;DHT22;790;47.000;16.084;2022-11-15T07:33:32;9.30;99.90
1594;DHT22;790;47.000;16.084;2022-11-15T07:36:00;9.30;99.90
1594;DHT22;790;47.000;16.084;2022-11-15T07:38:29;9.20;99.90
1594;DHT22;790;47.000;16.084;2022-11-15T07:40:56;9.20;99.90
1594;DHT22;790;47.000;16.084;2022-11-15T07:43:24;9.20;99.90
1594;DHT22;790;47.000;16.084;2022-11-15T07:45:55;9.30;99.90
1594;DHT22;790;47.000;16.084;2022-11-15T07:48:22;9.30;99.90
1594;DHT22;790;47.000;16.084;2022-11-15T07:50:49;9.30;99.90
1594;DHT22;790;47.000;16.084;2022-11-15T07:53:16;9.30;99.90
1594;DHT22;790;47.000;16.084;2022-11-15T07:55:43;9.30;99.90
1594;DHT22;790;47.000;16.084;2022-11-15T07:58:12;9.40;99.90
1594;DHT22;790;47.000;16.084;2022-11-15T08:00:39;9.30;99.90
1594;DHT22;790;47.000;16.084;2022-11-15T08:03:09;9.20;99.90
1594;DHT22;790;47.000;16.084;2022-11-15T08:05:37;9.30;99.90
1594;DHT22;790;47.000;16.084;2022-11-15T08:08:05;9.30;99.90
1594;DHT22;790;47.000;16.084;2022-11-15T08:10:33;9.30;99.90
1594;DHT22;790;47.000;16.084;2022-11-15T08:13:01;9.30;99.90
1594;DHT22;790;47.000;16.084;2022-11-15T08:15:29;9.40;99.90
1594;DHT22;790;47.000;16.084;2022-11-15T08:17:57;9.40;99.90
1594;DHT22;790;47.000;16.084;2022-11-15T08:20:29;9.40;99.90
1594;DHT22;790;47.000;16.084;2022-11-15T08:22:57;9.40;99.90
1594;DHT22;790;47.000;16.084;2022-11-15T08:25:25;9.30;99.90
1594;DHT22;790;47.000;16.084;2022-11-15T08:27:53;9.30;99.90
1594;DHT22;790;47.000;16.084;2022-11-15T08:30:21;9.20;99.90
1594;DHT22;790;47.000;16.084;2022-11-15T08:32:51;9.20;99.90
1594;DHT22;790;47.000;16.084;2022-11-15T08:35:19;9.30;99.90
1594;DHT22;790;47.000;16.084;2022-11-15T08:37:48;9.40;99.90
1594;DHT22;790;47.000;16.084;2022-11-15T08:40:15;9.30;99.90
1594;DHT22;790;47.000;16.084;2022-11-15T08:42:46;9.40;99.90
1594;DHT22;790;47.000;16.084;2022-11-15T08:45:13;9.40;99.90
1594;DHT22;790;47.000;16.084;2022-11-15T08:47:40;9.40;99.90
1594;DHT22;790;47.000;16.084;2022-11-15T08:50:10;9.50;99.90
1594;DHT22;790;47.000;16.084;2022-11-15T08:52:37;9.60;99.90
1594;DHT22;790;47.000;16.084;2022-11-15T08:55:07;9.60;99.90
1594;DHT22;790;47.000;16.084;2022-11-15T08:57:34;9.60;99.90
1594;DHT22;790;47.000;16.084;2022-11-15T09:00:01;9.70;99.90
1594;DHT22;790;47.000;16.084;2022-11-15T09:02:28;9.70;99.90
1594;DHT22;790;47.000;16.084;2022-11-15T09:04:55;9.70;99.90
1594;DHT22;790;47.000;16.084;2022-11-15T09:07:22;9.70;99.90
1594;DHT22;790;47.000;16.084;2022-11-15T09:09:49;9.70;99.90
1594;DHT22;790;47.000;16.084;2022-11-15T09:12:18;9.80;99.90
1594;DHT22;790;47.000;16.084;2022-11-15T09:14:45;9.80;99.90
1594;DHT22;790;47.000;16.084;2022-11-15T09:17:12;9.80;99.90
1594;DHT22;790;47.000;16.084;2022-11-15T09:19:39;9.90;99.90
1594;DHT22;790;47.000;16.084;2022-11-15T09:22:08;10.00;99.90
1594;DHT22;790;47.000;16.084;2022-11-15T09:24:36;10.10;99.90
1594;DHT22;790;47.000;16.084;2022-11-15T09:27:03;10.10;99.90
1594;DHT22;790;47.000;16.084;2022-11-15T09:29:31;10.20;99.90
1594;DHT22;790;47.000;16.084;2022-11-15T09:31:58;10.20;99.90
1594;DHT22;790;47.000;16.084;2022-11-15T09:34:25;10.20;99.90
1594;DHT22;790;47.000;16.084;2022-11-15T09:36:52;10.30;99.90
1594;DHT22;790;47.000;16.084;2022-11-15T09:39:25;10.20;99.90
1594;DHT22;790;47.000;16.084;2022-11-15T09:44:57;10.30;99.90
1594;DHT22;790;47.000;16.084;2022-11-15T09:50:36;10.30;99.90
1594;DHT22;790;47.000;16.084;2022-11-15T09:53:03;10.30;99.90
1594;DHT22;790;47.000;16.084;2022-11-15T09:55:36;10.30;99.90
1594;DHT22;790;47.000;16.084;2022-11-15T09:58:16;10.50;99.90
1594;DHT22;790;47.000;16.084;2022-11-15T10:00:48;10.50;99.90
1594;DHT22;790;47.000;16.084;2022-11-15T10:03:23;10.70;99.90
1594;DHT22;790;47.000;16.084;2022-11-15T10:05:55;10.70;99.90
1594;DHT22;790;47.000;16.084;2022-11-15T10:08:40;10.70;99.90
1594;DHT22;790;47.000;16.084;2022-11-15T10:11:17;10.80;99.90
1594;DHT22;790;47.000;16.084;2022-11-15T10:13:46;10.80;99.90
1594;DHT22;790;47.000;16.084;2022-11-15T10:16:26;10.80;99.90
1594;DHT22;790;47.000;16.084;2022-11-15T10:19:03;10.80;99.90
1594;DHT22;790;47.000;16.084;2022-11-15T10:21:44;10.80;99.90
1594;DHT22;790;47.000;16.084;2022-11-15T10:24:19;10.60;99.90
1594;DHT22;790;47.000;16.084;2022-11-15T10:26:47;10.60;99.90
1594;DHT22;790;47.000;16.084;2022-11-15T10:29:18;10.60;99.90
1594;DHT22;790;47.000;16.084;2022-11-15T10:31:49;10.60;99.90
1594;DHT22;790;47.000;16.084;2022-11-15T10:34:18;10.70;99.90
1594;DHT22;790;47.000;16.084;2022-11-15T10:36:46;10.70;99.90
1594;DHT22;790;47.000;16.084;2022-11-15T10:39:14;10.80;99.90
1594;DHT22;790;47.000;16.084;2022-11-15T10:41:42;10.90;99.90
1594;DHT22;790;47.000;16.084;2022-11-15T10:47:28;10.90;99.90
1594;DHT22;790;47.000;16.084;2022-11-15T10:50:01;10.90;99.90
1594;DHT22;790;47.000;16.084;2022-11-15T10:52:30;11.00;99.90
1594;DHT22;790;47.000;16.084;2022-11-15T10:55:04;11.00;99.90
1594;DHT22;790;47.000;16.084;2022-11-15T10:57:36;11.00;99.90
1594;DHT22;790;47.000;16.084;2022-11-15T11:00:07;11.10;99.90
1594;DHT22;790;47.000;16.084;2022-11-15T11:02:37;11.10;99.90
1594;DHT22;790;47.000;16.084;2022-11-15T11:05:06;11.10;99.90
1594;DHT22;790;47.000;16.084;2022-11-15T11:07:56;11.10;99.90
1594;DHT22;790;47.000;16.084;2022-11-15T11:10:24;11.20;99.90
1594;DHT22;790;47.000;16.084;2022-11-15T11:12:51;11.20;99.90
1594;DHT22;790;47.000;16.084;2022-11-15T11:15:18;11.20;99.90
1594;DHT22;790;47.000;16.084;2022-11-15T11:18:04;11.20;99.90
1594;DHT22;790;47.000;16.084;2022-11-15T11:20:38;11.20;99.90
1594;DHT22;790;47.000;16.084;2022-11-15T11:23:29;11.20;99.90
1594;DHT22;790;47.000;16.084;2022-11-15T11:26:07;11.10;99.90
1594;DHT22;790;47.000;16.084;2022-11-15T11:28:44;11.20;99.90
1594;DHT22;790;47.000;16.084;2022-11-15T11:31:24;11.20;99.90
1594;DHT22;790;47.000;16.084;2022-11-15T11:34:01;11.30;99.90
1594;DHT22;790;47.000;16.084;2022-11-15T11:36:38;11.40;99.90
1594;DHT22;790;47.000;16.084;2022-11-15T11:39:17;11.30;99.90
1594;DHT22;790;47.000;16.084;2022-11-15T11:41:56;11.40;99.90
1594;DHT22;790;47.000;16.084;2022-11-15T11:44:37;11.40;99.90
1594;DHT22;790;47.000;16.084;2022-11-15T11:47:10;11.40;99.90
1594;DHT22;790;47.000;16.084;2022-11-15T11:49:43;11.40;99.90
1594;DHT22;790;47.000;16.084;2022-11-15T11:52:16;11.30;99.90
1594;DHT22;790;47.000;16.084;2022-11-15T11:54:53;11.30;99.90
1594;DHT22;790;47.000;16.084;2022-11-15T11:57:30;11.30;99.90
1594;DHT22;790;47.000;16.084;2022-11-15T12:00:03;11.20;99.90
1594;DHT22;790;47.000;16.084;2022-11-15T12:02:34;11.10;99.90
1594;DHT22;790;47.000;16.084;2022-11-15T12:05:10;11.10;99.90
1594;DHT22;790;47.000;16.084;2022-11-15T12:07:40;11.10;99.90
1594;DHT22;790;47.000;16.084;2022-11-15T12:10:17;11.10;99.90
1594;DHT22;790;47.000;16.084;2022-11-15T12:12:54;11.10;99.90
1594;DHT22;790;47.000;16.084;2022-11-15T12:15:24;11.10;99.90
1594;DHT22;790;47.000;16.084;2022-11-15T12:18:00;11.20;99.90
1594;DHT22;790;47.000;16.084;2022-11-15T12:20:33;11.10;99.90
1594;DHT22;790;47.000;16.084;2022-11-15T12:23:06;11.00;99.90
1594;DHT22;790;47.000;16.084;2022-11-15T12:25:44;11.00;99.90
1594;DHT22;790;47.000;16.084;2022-11-15T12:28:24;11.00;99.90
1594;DHT22;790;47.000;16.084;2022-11-15T12:31:00;11.00;99.90
1594;DHT22;790;47.000;16.084;2022-11-15T12:33:32;10.90;99.90
1594;DHT22;790;47.000;16.084;2022-11-15T12:36:04;10.80;99.90
1594;DHT22;790;47.000;16.084;2022-11-15T12:38:55;10.80;99.90
1594;DHT22;790;47.000;16.084;2022-11-15T12:41:25;10.80;99.90
1594;DHT22;790;47.000;16.084;2022-11-15T12:43:55;10.80;99.90
1594;DHT22;790;47.000;16.084;2022-11-15T12:46:59;10.80;99.90
1594;DHT22;790;47.000;16.084;2022-11-15T12:49:46;10.80;99.90
1594;DHT22;790;47.000;16.084;2022-11-15T12:52:17;10.70;99.90
1594;DHT22;790;47.000;16.084;2022-11-15T12:57:40;10.80;99.90
1594;DHT22;790;47.000;16.084;2022-11-15T13:00:37;10.80;99.90
1594;DHT22;790;47.000;16.084;2022-11-15T13:03:25;10.80;99.90
1594;DHT22;790;47.000;16.084;2022-11-15T13:06:09;10.90;99.90
1594;DHT22;790;47.000;16.084;2022-11-15T13:08:47;10.90;99.90
1594;DHT22;790;47.000;16.084;2022-11-15T13:11:50;10.80;99.90
1594;DHT22;790;47.000;16.084;2022-11-15T13:14:50;10.70;99.90
1594;DHT22;790;47.000;16.084;2022-11-15T13:17:30;10.70;99.90
1594;DHT22;790;47.000;16.084;2022-11-15T13:20:22;10.80;99.90
1594;DHT22;790;47.000;16.084;2022-11-15T13:22:52;10.80;99.90
1594;DHT22;790;47.000;16.084;2022-11-15T13:26:00;10.80;99.90
1594;DHT22;790;47.000;16.084;2022-11-15T13:28:36;10.70;99.90
1594;DHT22;790;47.000;16.084;2022-11-15T13:31:22;10.70;99.90
1594;DHT22;790;47.000;16.084;2022-11-15T13:33:50;10.70;99.90
1594;DHT22;790;47.000;16.084;2022-11-15T13:36:22;10.70;99.90
1594;DHT22;790;47.000;16.084;2022-11-15T13:38:58;10.70;99.90
1594;DHT22;790;47.000;16.084;2022-11-15T13:41:28;10.80;99.90
1594;DHT22;790;47.000;16.084;2022-11-15T13:43:57;10.80;99.90
1594;DHT22;790;47.000;16.084;2022-11-15T13:46:31;10.80;99.90
1594;DHT22;790;47.000;16.084;2022-11-15T13:49:00;10.80;99.90
1594;DHT22;790;47.000;16.084;2022-11-15T13:51:35;10.80;99.90
1594;DHT22;790;47.000;16.084;2022-11-15T13:54:13;10.90;99.90
1594;DHT22;790;47.000;16.084;2022-11-15T13:56:47;10.90;99.90
1594;DHT22;790;47.000;16.084;2022-11-15T13:59:19;10.90;99.90
1594;DHT22;790;47.000;16.084;2022-11-15T14:01:50;10.90;99.90
1594;DHT22;790;47.000;16.084;2022-11-15T14:04:20;10.90;99.90
1594;DHT22;790;47.000;16.084;2022-11-15T14:06:50;10.90;99.90
1594;DHT22;790;47.000;16.084;2022-11-15T14:09:32;10.90;99.90
1594;DHT22;790;47.000;16.084;2022-11-15T14:12:31;11.00;99.90
1594;DHT22;790;47.000;16.084;2022-11-15T14:15:00;11.00;99.90
1594;DHT22;790;47.000;16.084;2022-11-15T14:17:38;11.00;99.90
1594;DHT22;790;47.000;16.084;2022-11-15T14:20:33;11.00;99.90
1594;DHT22;790;47.000;16.084;2022-11-15T14:23:02;10.90;99.90
1594;DHT22;790;47.000;16.084;2022-11-15T14:25:33;10.90;99.90
1594;DHT22;790;47.000;16.084;2022-11-15T14:28:29;10.90;99.90
1594;DHT22;790;47.000;16.084;2022-11-15T14:30:59;11.00;99.90
1594;DHT22;790;47.000;16.084;2022-11-15T14:33:29;10.90;99.90
1594;DHT22;790;47.000;16.084;2022-11-15T14:36:03;10.80;99.90
1594;DHT22;790;47.000;16.084;2022-11-15T14:38:31;10.80;99.90
1594;DHT22;790;47.000;16.084;2022-11-15T14:40:58;10.80;99.90
1594;DHT22;790;47.000;16.084;2022-11-15T14:43:27;10.80;99.90
1594;DHT22;790;47.000;16.084;2022-11-15T14:45:54;10.90;99.90
1594;DHT22;790;47.000;16.084;2022-11-15T14:48:22;10.80;99.90
1594;DHT22;790;47.000;16.084;2022-11-15T14:50:49;10.80;99.90
1594;DHT22;790;47.000;16.084;2022-11-15T14:53:17;10.80;99.90
1594;DHT22;790;47.000;16.084;2022-11-15T14:55:45;10.80;99.90
1594;DHT22;790;47.000;16.084;2022-11-15T14:58:12;10.80;99.90
1594;DHT22;790;47.000;16.084;2022-11-15T15:00:41;10.80;99.90
1594;DHT22;790;47.000;16.084;2022-11-15T15:03:08;10.80;99.90
1594;DHT22;790;47.000;16.084;2022-11-15T15:05:37;10.80;99.90
1594;DHT22;790;47.000;16.084;2022-11-15T15:08:05;10.70;99.90
1594;DHT22;790;47.000;16.084;2022-11-15T15:10:34;10.80;99.90
1594;DHT22;790;47.000;16.084;2022-11-15T15:13:02;10.60;99.90
1594;DHT22;790;47.000;16.084;2022-11-15T15:15:32;10.60;99.90
1594;DHT22;790;47.000;16.084;2022-11-15T15:18:01;10.50;99.90
1594;DHT22;790;47.000;16.084;2022-11-15T15:20:30;10.60;99.90
1594;DHT22;790;47.000;16.084;2022-11-15T15:22:57;10.70;99.90
1594;DHT22;790;47.000;16.084;2022-11-15T15:25:28;10.70;99.90
1594;DHT22;790;47.000;16.084;2022-11-15T15:27:56;10.70;99.90
1594;DHT22;790;47.000;16.084;2022-11-15T15:30:23;10.70;99.90
1594;DHT22;790;47.000;16.084;2022-11-15T15:32:51;10.60;99.90
1594;DHT22;790;47.000;16.084;2022-11-15T15:35:21;10.60;99.90
1594;DHT22;790;47.000;16.084;2022-11-15T15:37:49;10.70;99.90
1594;DHT22;790;47.000;16.084;2022-11-15T15:40:18;10.70;99.90
1594;DHT22;790;47.000;16.084;2022-11-15T15:42:46;10.70;99.90
1594;DHT22;790;47.000;16.084;2022-11-15T15:45:14;10.60;99.90
1594;DHT22;790;47.000;16.084;2022-11-15T15:47:41;10.70;99.90
1594;DHT22;790;47.000;16.084;2022-11-15T15:50:22;10.70;99.90
1594;DHT22;790;47.000;16.084;2022-11-15T15:52:49;10.80;99.90
1594;DHT22;790;47.000;16.084;2022-11-15T15:55:17;10.80;99.90
1594;DHT22;790;47.000;16.084;2022-11-15T15:57:44;10.80;99.90
1594;DHT22;790;47.000;16.084;2022-11-15T16:00:13;10.80;99.90
1594;DHT22;790;47.000;16.084;2022-11-15T16:02:40;10.80;99.90
1594;DHT22;790;47.000;16.084;2022-11-15T16:05:08;10.80;99.90
1594;DHT22;790;47.000;16.084;2022-11-15T16:07:37;10.80;99.90
1594;DHT22;790;47.000;16.084;2022-11-15T16:10:18;10.80;99.90
1594;DHT22;790;47.000;16.084;2022-11-15T16:12:46;10.70;99.90
1594;DHT22;790;47.000;16.084;2022-11-15T16:15:13;10.70;99.90
1594;DHT22;790;47.000;16.084;2022-11-15T16:17:48;10.70;99.90
1594;DHT22;790;47.000;16.084;2022-11-15T16:20:32;10.80;99.90
1594;DHT22;790;47.000;16.084;2022-11-15T16:23:03;10.70;99.90
1594;DHT22;790;47.000;16.084;2022-11-15T16:25:32;10.80;99.90
1594;DHT22;790;47.000;16.084;2022-11-15T16:28:00;10.70;99.90
1594;DHT22;790;47.000;16.084;2022-11-15T16:30:27;10.60;99.90
1594;DHT22;790;47.000;16.084;2022-11-15T16:32:54;10.50;99.90
1594;DHT22;790;47.000;16.084;2022-11-15T16:35:21;10.60;99.90
1594;DHT22;790;47.000;16.084;2022-11-15T16:37:50;10.50;99.90
1594;DHT22;790;47.000;16.084;2022-11-15T16:40:26;10.50;99.90
1594;DHT22;790;47.000;16.084;2022-11-15T16:42:53;10.50;99.90
1594;DHT22;790;47.000;16.084;2022-11-15T16:45:22;10.50;99.90
1594;DHT22;790;47.000;16.084;2022-11-15T16:47:49;10.50;99.90
1594;DHT22;790;47.000;16.084;2022-11-15T16:50:21;10.40;99.90